Time;durP1;ratioP1;P1;durP2;ratioP2;P2;SDS_P1;SDS_P2;PMS_P1;PMS_P2;Temp;Humidity;BMP_temperature;BMP_pressure;BME280_temperature;BME280_humidity;BME280_pressure;Samples;Min_cycle;Max_cycle;Signal;HPM_P1;HPM_P2
2023/03/18 00:01:11;;;;;;;10.50;8.23;;;3.40;99.90;;;;;;5075792;28;20665;-76
2023/03/18 00:03:40;;;;;;;10.47;7.90;;;3.30;99.90;;;;;;5078334;28;20305;-78
2023/03/18 00:06:10;;;;;;;12.73;8.27;;;3.30;99.90;;;;;;5078559;28;20213;-76
2023/03/18 00:08:39;;;;;;;14.07;8.23;;;3.30;99.90;;;;;;5077660;28;20211;-76
2023/03/18 00:11:09;;;;;;;12.80;7.90;;;3.20;99.90;;;;;;5077161;28;20306;-76
2023/03/18 00:13:38;;;;;;;10.70;8.47;;;3.20;99.90;;;;;;5076863;28;20244;-77
2023/03/18 00:16:07;;;;;;;11.17;7.90;;;3.20;99.90;;;;;;5077790;28;20209;-76
2023/03/18 00:18:38;;;;;;;12.10;8.37;;;3.20;99.90;;;;;;5077512;28;20211;-76
2023/03/18 00:21:06;;;;;;;15.37;8.30;;;3.20;99.90;;;;;;5076898;28;20618;-77
2023/03/18 00:23:35;;;;;;;12.50;8.90;;;3.10;99.90;;;;;;5076200;28;20244;-76
2023/03/18 00:26:04;;;;;;;9.53;7.73;;;3.20;99.90;;;;;;5097703;28;20207;-76
2023/03/18 00:28:32;;;;;;;11.00;8.27;;;3.10;99.90;;;;;;5081961;28;20281;-75
2023/03/18 00:31:07;;;;;;;10.70;8.50;;;3.10;99.90;;;;;;5077514;28;20291;-76
2023/03/18 00:33:39;;;;;;;11.87;7.80;;;3.10;99.90;;;;;;5076347;28;20666;-76
2023/03/18 00:36:09;;;;;;;12.30;8.40;;;3.00;99.90;;;;;;5074705;28;20747;-76
2023/03/18 00:38:38;;;;;;;16.47;8.77;;;2.90;99.90;;;;;;5074384;28;20684;-76
2023/03/18 00:41:11;;;;;;;11.97;9.10;;;2.90;99.90;;;;;;5074227;28;20628;-75
2023/03/18 00:43:45;;;;;;;12.30;9.20;;;2.90;99.90;;;;;;5073640;28;20716;-77
2023/03/18 00:46:16;;;;;;;14.47;9.47;;;2.90;99.90;;;;;;5074598;28;20290;-76
2023/03/18 00:48:47;;;;;;;15.30;9.57;;;2.90;99.90;;;;;;5073819;28;20242;-77
2023/03/18 00:51:16;;;;;;;13.90;9.70;;;2.90;99.90;;;;;;5074299;28;20229;-76
2023/03/18 00:53:46;;;;;;;13.87;9.30;;;2.80;99.90;;;;;;5084146;28;20253;-78
2023/03/18 00:56:16;;;;;;;15.90;9.90;;;2.80;99.90;;;;;;5094298;28;20206;-77
2023/03/18 00:58:45;;;;;;;14.00;9.20;;;2.80;99.90;;;;;;5094344;28;20199;-77
2023/03/18 01:01:14;;;;;;;13.40;9.37;;;2.70;99.90;;;;;;5088013;28;20207;-76
2023/03/18 01:03:43;;;;;;;13.50;8.90;;;2.70;99.90;;;;;;5073813;28;20230;-76
2023/03/18 01:06:16;;;;;;;12.93;9.00;;;2.70;99.90;;;;;;5073993;28;20208;-76
2023/03/18 01:08:44;;;;;;;12.67;9.10;;;2.60;99.90;;;;;;5078258;28;20214;-78
2023/03/18 01:11:13;;;;;;;16.83;9.93;;;2.60;99.90;;;;;;5094397;28;20209;-78
2023/03/18 01:13:41;;;;;;;14.07;9.60;;;2.60;99.90;;;;;;5093452;28;20680;-77
2023/03/18 01:16:10;;;;;;;12.40;9.00;;;2.60;99.90;;;;;;5094196;28;20290;-77
2023/03/18 01:18:40;;;;;;;12.30;8.50;;;2.60;99.90;;;;;;5083615;28;20204;-75
2023/03/18 01:21:14;;;;;;;11.13;8.37;;;2.60;99.90;;;;;;5073283;28;20207;-76
2023/03/18 01:23:42;;;;;;;11.80;8.37;;;2.50;99.90;;;;;;5086948;28;20234;-78
2023/03/18 01:26:10;;;;;;;13.27;8.90;;;2.50;99.90;;;;;;5090020;28;20723;-77
2023/03/18 01:28:38;;;;;;;11.50;8.50;;;2.50;99.90;;;;;;5073252;28;20250;-78
2023/03/18 01:31:07;;;;;;;11.57;8.30;;;2.50;99.90;;;;;;5073133;28;20219;-75
2023/03/18 01:33:35;;;;;;;13.53;8.83;;;2.40;99.90;;;;;;5072662;28;20958;-76
2023/03/18 01:36:04;;;;;;;11.13;9.07;;;2.50;99.90;;;;;;5072320;28;20618;-77
2023/03/18 01:38:33;;;;;;;10.67;8.13;;;2.50;99.90;;;;;;5072631;28;20665;-77
2023/03/18 01:41:02;;;;;;;11.03;8.13;;;2.40;99.90;;;;;;5073148;28;20235;-77
2023/03/18 01:43:32;;;;;;;11.70;8.40;;;2.40;99.90;;;;;;5075914;28;20222;-76
2023/03/18 01:46:22;;;;;;;10.70;8.37;;;2.40;99.90;;;;;;5093303;28;20278;-77
2023/03/18 01:48:51;;;;;;;11.97;8.77;;;2.40;99.90;;;;;;5093073;28;20621;-76
2023/03/18 01:51:25;;;;;;;11.80;8.57;;;2.40;99.90;;;;;;5086190;28;20302;-76
2023/03/18 01:53:58;;;;;;;14.27;8.90;;;2.30;99.90;;;;;;5072317;28;20290;-76
2023/03/18 01:56:27;;;;;;;12.13;8.87;;;2.30;99.90;;;;;;5072576;28;20698;-76
2023/03/18 01:58:57;;;;;;;12.93;8.30;;;2.30;99.90;;;;;;5072225;28;20661;-77
2023/03/18 02:01:32;;;;;;;10.23;8.00;;;2.30;99.90;;;;;;5071712;28;20676;-76
2023/03/18 02:04:01;;;;;;;11.43;8.10;;;2.30;99.90;;;;;;5071995;28;20226;-77
2023/03/18 02:06:29;;;;;;;11.60;7.60;;;2.30;99.90;;;;;;5072199;28;20207;-76
2023/03/18 02:09:00;;;;;;;12.33;8.10;;;2.30;99.90;;;;;;5071605;28;20270;-77
2023/03/18 02:11:32;;;;;;;11.23;8.40;;;2.30;99.90;;;;;;5071691;28;20294;-76
2023/03/18 02:14:01;;;;;;;11.03;8.13;;;2.30;99.90;;;;;;5072176;28;20223;-75
2023/03/18 02:16:33;;;;;;;11.23;7.97;;;2.30;99.90;;;;;;5072501;28;20216;-77
2023/03/18 02:19:09;;;;;;;13.30;9.13;;;2.30;99.90;;;;;;5072948;28;20200;-76
2023/03/18 02:21:47;;;;;;;14.17;8.30;;;2.30;99.90;;;;;;5079789;28;20210;-76
2023/03/18 02:24:27;;;;;;;12.87;8.33;;;2.40;99.90;;;;;;5092381;28;20643;-76
2023/03/18 02:27:00;;;;;;;10.63;8.10;;;2.40;99.90;;;;;;5093107;28;20230;-77
2023/03/18 02:29:33;;;;;;;9.87;7.50;;;2.40;99.90;;;;;;5074748;28;20223;-75
2023/03/18 02:32:04;;;;;;;9.97;8.13;;;2.40;99.90;;;;;;5071637;28;20230;-77
2023/03/18 02:34:34;;;;;;;12.37;8.27;;;2.40;99.90;;;;;;5072143;28;20191;-77
2023/03/18 02:37:03;;;;;;;10.57;7.87;;;2.40;99.90;;;;;;5072242;28;20226;-76
2023/03/18 02:39:31;;;;;;;11.83;8.23;;;2.40;99.90;;;;;;5073135;28;20230;-77
2023/03/18 02:41:59;;;;;;;11.37;7.93;;;2.40;99.90;;;;;;5071796;28;20210;-75
2023/03/18 02:44:29;;;;;;;13.07;8.23;;;2.40;99.90;;;;;;5072281;28;20219;-77
2023/03/18 02:47:01;;;;;;;11.50;8.30;;;2.40;99.90;;;;;;5071604;28;20550;-76
2023/03/18 02:49:31;;;;;;;11.00;7.80;;;2.40;99.90;;;;;;5071511;28;20207;-76
2023/03/18 02:51:59;;;;;;;12.43;8.07;;;2.30;99.90;;;;;;5071351;28;20215;-75
2023/03/18 02:54:30;;;;;;;10.50;7.40;;;2.30;99.90;;;;;;5090869;28;20219;-75
2023/03/18 02:56:59;;;;;;;12.03;8.20;;;2.40;99.90;;;;;;5092206;28;20507;-76
2023/03/18 02:59:31;;;;;;;10.87;8.50;;;2.40;99.90;;;;;;5091976;28;20241;-77
2023/03/18 03:01:59;;;;;;;10.80;8.47;;;2.30;99.90;;;;;;5084336;28;20212;-76
2023/03/18 03:04:28;;;;;;;10.50;7.83;;;2.30;99.90;;;;;;5071774;28;20215;-76
2023/03/18 03:06:56;;;;;;;11.90;7.90;;;2.30;99.90;;;;;;5071880;28;20682;-75
2023/03/18 03:09:25;;;;;;;11.27;7.77;;;2.30;99.90;;;;;;5071532;28;20461;-76
2023/03/18 03:11:53;;;;;;;11.57;7.77;;;2.30;99.90;;;;;;5070912;28;20298;-77
2023/03/18 03:14:21;;;;;;;10.97;7.60;;;2.20;99.90;;;;;;5071725;28;20495;-77
2023/03/18 03:16:51;;;;;;;12.17;8.10;;;2.30;99.90;;;;;;5071554;28;20276;-76
2023/03/18 03:19:19;;;;;;;9.63;7.70;;;2.20;99.90;;;;;;5071866;28;20207;-77
2023/03/18 03:21:48;;;;;;;11.40;8.23;;;2.20;99.90;;;;;;5071366;28;20215;-77
2023/03/18 03:24:16;;;;;;;10.27;7.80;;;2.20;99.90;;;;;;5071610;28;20243;-77
2023/03/18 03:26:44;;;;;;;11.70;7.80;;;2.20;99.90;;;;;;5071675;28;20259;-77
2023/03/18 03:29:13;;;;;;;10.93;7.73;;;2.20;99.90;;;;;;5071249;28;20689;-76
2023/03/18 03:31:41;;;;;;;10.23;7.70;;;2.20;99.90;;;;;;5071100;28;20212;-77
2023/03/18 03:34:11;;;;;;;8.93;7.37;;;2.20;99.90;;;;;;5070962;28;20214;-77
2023/03/18 03:36:39;;;;;;;10.10;8.27;;;2.30;99.90;;;;;;5071611;28;20254;-76
2023/03/18 03:39:07;;;;;;;9.90;7.43;;;2.30;99.90;;;;;;5071281;28;20660;-77
2023/03/18 03:41:35;;;;;;;15.13;8.33;;;2.30;99.90;;;;;;5071382;28;20224;-77
2023/03/18 03:44:04;;;;;;;12.07;8.77;;;2.30;99.90;;;;;;5070833;28;20249;-77
2023/03/18 03:46:32;;;;;;;10.17;7.97;;;2.40;99.90;;;;;;5070956;28;20583;-77
2023/03/18 03:49:00;;;;;;;13.30;7.97;;;2.40;99.90;;;;;;5071340;28;20702;-78
2023/03/18 03:51:30;;;;;;;10.67;7.37;;;2.40;99.90;;;;;;5071290;28;20208;-77
2023/03/18 03:53:58;;;;;;;12.17;8.50;;;2.40;99.90;;;;;;5089457;28;20277;-76
2023/03/18 03:56:27;;;;;;;11.73;8.63;;;2.40;99.90;;;;;;5091351;28;20199;-75
2023/03/18 03:58:55;;;;;;;11.47;7.97;;;2.40;99.90;;;;;;5092615;28;20211;-77
2023/03/18 04:01:23;;;;;;;9.87;7.77;;;2.40;99.90;;;;;;5092054;28;20301;-75
2023/03/18 04:03:52;;;;;;;9.73;7.33;;;2.40;99.90;;;;;;5074487;28;20557;-76
2023/03/18 04:06:20;;;;;;;13.10;8.03;;;2.40;99.90;;;;;;5074516;28;20596;-77
2023/03/18 04:08:50;;;;;;;12.00;7.77;;;2.40;99.90;;;;;;5074207;28;20585;-79
2023/03/18 04:11:19;;;;;;;9.73;8.27;;;2.30;99.90;;;;;;5074662;28;20210;-76
2023/03/18 04:13:47;;;;;;;10.40;8.17;;;2.40;99.90;;;;;;5073853;28;20212;-76
2023/03/18 04:16:15;;;;;;;10.33;7.57;;;2.40;99.90;;;;;;5074495;28;20199;-76
2023/03/18 04:18:44;;;;;;;12.27;8.10;;;2.30;99.90;;;;;;5080556;28;20252;-77
2023/03/18 04:21:12;;;;;;;11.43;7.70;;;2.30;99.90;;;;;;5076749;28;20274;-77
2023/03/18 04:23:41;;;;;;;12.83;7.93;;;2.30;99.90;;;;;;5073728;28;20207;-77
2023/03/18 04:26:11;;;;;;;9.83;8.03;;;2.30;99.90;;;;;;5074565;28;20243;-77
2023/03/18 04:28:40;;;;;;;9.33;7.70;;;2.20;99.90;;;;;;5081965;28;20211;-76
2023/03/18 04:31:08;;;;;;;12.07;8.27;;;2.30;99.90;;;;;;5094205;28;20744;-78
2023/03/18 04:33:36;;;;;;;13.70;8.30;;;2.30;99.90;;;;;;5094005;28;20293;-76
2023/03/18 04:36:05;;;;;;;10.20;7.87;;;2.40;99.90;;;;;;5088012;28;20580;-77
2023/03/18 04:38:33;;;;;;;10.07;8.03;;;2.30;99.90;;;;;;5074176;28;20620;-77
2023/03/18 04:41:03;;;;;;;10.53;7.70;;;2.40;99.90;;;;;;5073922;28;20243;-78
2023/03/18 04:43:32;;;;;;;10.40;7.60;;;2.30;99.90;;;;;;5080547;28;20621;-78
2023/03/18 04:46:00;;;;;;;14.13;7.93;;;2.40;99.90;;;;;;5094284;28;20573;-77
2023/03/18 04:48:29;;;;;;;10.27;7.03;;;2.40;99.90;;;;;;5093827;28;20221;-77
2023/03/18 04:50:57;;;;;;;9.30;7.40;;;2.40;99.90;;;;;;5094077;28;20223;-77
2023/03/18 04:53:25;;;;;;;8.83;7.23;;;2.40;99.90;;;;;;5092938;28;20231;-75
2023/03/18 04:55:54;;;;;;;9.50;7.30;;;2.40;99.90;;;;;;5094053;28;20202;-77
2023/03/18 04:58:22;;;;;;;10.20;7.83;;;2.40;99.90;;;;;;5094069;28;20290;-77
2023/03/18 05:00:52;;;;;;;10.30;7.27;;;2.30;99.90;;;;;;5079403;28;20583;-77
2023/03/18 05:03:21;;;;;;;10.70;7.13;;;2.40;99.90;;;;;;5073124;28;20250;-77
2023/03/18 05:05:50;;;;;;;14.23;7.37;;;2.30;99.90;;;;;;5073636;28;20293;-77
2023/03/18 05:08:18;;;;;;;11.20;7.80;;;2.30;99.90;;;;;;5073735;28;20224;-77
2023/03/18 05:10:46;;;;;;;10.73;7.90;;;2.30;99.90;;;;;;5093514;28;20277;-77
2023/03/18 05:13:15;;;;;;;10.73;8.33;;;2.30;99.90;;;;;;5093298;28;20286;-77
2023/03/18 05:15:43;;;;;;;9.93;7.10;;;2.30;99.90;;;;;;5093719;28;20230;-77
2023/03/18 05:18:13;;;;;;;13.57;8.10;;;2.30;99.90;;;;;;5092707;28;20298;-77
2023/03/18 05:20:41;;;;;;;10.23;7.27;;;2.30;99.90;;;;;;5093588;28;20188;-77
2023/03/18 05:23:09;;;;;;;12.60;8.13;;;2.30;99.90;;;;;;5093294;28;20217;-77
2023/03/18 05:25:37;;;;;;;9.67;7.40;;;2.30;99.90;;;;;;5091249;28;20218;-77
2023/03/18 05:28:05;;;;;;;9.57;7.07;;;2.40;99.90;;;;;;5072784;28;20232;-77
2023/03/18 05:30:38;;;;;;;10.70;7.63;;;2.50;99.90;;;;;;5073177;28;20223;-78
2023/03/18 05:33:06;;;;;;;9.87;7.23;;;2.50;99.90;;;;;;5073151;28;20623;-78
2023/03/18 05:35:36;;;;;;;9.47;6.73;;;2.50;99.90;;;;;;5072659;28;20290;-77
2023/03/18 05:38:05;;;;;;;9.73;7.10;;;2.60;99.90;;;;;;5072522;28;20207;-78
2023/03/18 05:40:33;;;;;;;8.70;6.80;;;2.60;99.90;;;;;;5072974;28;20207;-76
2023/03/18 05:43:02;;;;;;;10.97;7.00;;;2.60;99.90;;;;;;5072372;28;20220;-77
2023/03/18 05:45:31;;;;;;;8.67;6.70;;;2.70;99.90;;;;;;5073292;28;20273;-77
2023/03/18 05:47:59;;;;;;;7.57;6.20;;;2.70;99.90;;;;;;5072735;28;20207;-77
2023/03/18 05:50:32;;;;;;;9.93;6.73;;;2.80;99.90;;;;;;5072315;28;20227;-75
2023/03/18 05:53:03;;;;;;;9.53;7.13;;;2.80;99.90;;;;;;5072436;28;20578;-77
2023/03/18 05:55:32;;;;;;;9.57;7.33;;;2.90;99.90;;;;;;5072725;28;20200;-77
2023/03/18 05:58:00;;;;;;;8.97;6.83;;;3.00;99.90;;;;;;5072296;28;20290;-78
2023/03/18 06:00:30;;;;;;;11.00;7.20;;;3.00;99.90;;;;;;5085822;28;20428;-77
2023/03/18 06:02:59;;;;;;;10.37;7.30;;;3.10;99.90;;;;;;5092711;28;20210;-75
2023/03/18 06:05:28;;;;;;;10.63;7.70;;;3.10;99.90;;;;;;5092885;28;20280;-75
2023/03/18 06:07:58;;;;;;;10.43;7.10;;;3.20;99.90;;;;;;5091744;28;20217;-77
2023/03/18 06:10:27;;;;;;;11.07;7.20;;;3.30;99.90;;;;;;5092680;28;20789;-76
2023/03/18 06:12:56;;;;;;;11.63;7.67;;;3.40;99.90;;;;;;5092469;28;20212;-77
2023/03/18 06:15:24;;;;;;;10.50;6.97;;;3.50;99.90;;;;;;5083611;28;20207;-77
2023/03/18 06:17:52;;;;;;;11.27;8.10;;;3.60;99.90;;;;;;5092721;28;20214;-76
2023/03/18 06:20:22;;;;;;;13.70;7.40;;;3.70;99.90;;;;;;5092332;28;20738;-77
2023/03/18 06:22:50;;;;;;;9.80;7.13;;;3.80;99.90;;;;;;5082092;28;20257;-76
2023/03/18 06:25:21;;;;;;;9.47;6.80;;;3.90;99.90;;;;;;5071950;28;20693;-77
2023/03/18 06:27:51;;;;;;;9.87;6.27;;;4.10;99.90;;;;;;5072245;28;20330;-76
2023/03/18 06:30:20;;;;;;;7.50;5.93;;;4.20;99.90;;;;;;5072783;28;20219;-76
2023/03/18 06:32:48;;;;;;;9.23;5.70;;;4.30;99.90;;;;;;5083789;28;20233;-76
2023/03/18 06:35:17;;;;;;;7.87;5.60;;;4.50;99.90;;;;;;5092528;28;20213;-76
2023/03/18 06:37:46;;;;;;;7.27;5.23;;;4.60;99.90;;;;;;5092469;28;20298;-76
2023/03/18 06:40:14;;;;;;;8.93;5.07;;;4.80;99.90;;;;;;5091783;28;20234;-77
2023/03/18 06:42:43;;;;;;;10.27;5.40;;;5.00;99.90;;;;;;5071680;28;20251;-77
2023/03/18 06:45:14;;;;;;;8.70;5.27;;;5.20;99.90;;;;;;5072435;28;20246;-76
2023/03/18 06:47:42;;;;;;;7.33;5.07;;;5.50;99.90;;;;;;5074558;28;20209;-78
2023/03/18 06:50:12;;;;;;;7.40;4.70;;;5.70;99.90;;;;;;5078042;28;20552;-79
2023/03/18 06:52:41;;;;;;;6.43;4.83;;;6.00;99.90;;;;;;5091868;28;20301;-76
2023/03/18 06:55:09;;;;;;;6.90;4.70;;;6.30;99.90;;;;;;5092155;28;20238;-76
2023/03/18 06:57:38;;;;;;;9.67;5.70;;;6.50;99.90;;;;;;5092244;28;20294;-76
2023/03/18 07:00:10;;;;;;;6.43;4.57;;;6.70;99.90;;;;;;5091259;28;20312;-77
2023/03/18 07:02:40;;;;;;;6.33;4.37;;;7.00;99.90;;;;;;5091795;28;20245;-76
2023/03/18 07:05:11;;;;;;;7.17;4.77;;;7.20;99.90;;;;;;5091910;28;20294;-77
2023/03/18 07:07:39;;;;;;;7.97;4.97;;;7.40;99.90;;;;;;5084995;28;20211;-76
2023/03/18 07:10:10;;;;;;;15.13;9.23;;;7.70;99.90;;;;;;5071779;28;20218;-75
2023/03/18 07:12:39;;;;;;;11.83;6.00;;;7.90;99.90;;;;;;5071389;28;20317;-78
2023/03/18 07:15:08;;;;;;;8.27;5.80;;;8.10;99.90;;;;;;5083041;28;20734;-76
2023/03/18 07:17:36;;;;;;;8.57;5.20;;;8.30;99.90;;;;;;5078720;28;20609;-77
2023/03/18 07:20:06;;;;;;;7.03;4.73;;;8.50;99.90;;;;;;5071546;28;20211;-77
2023/03/18 07:22:36;;;;;;;6.40;4.10;;;8.90;99.90;;;;;;5071810;28;20234;-78
2023/03/18 07:25:04;;;;;;;6.10;3.80;;;9.10;99.90;;;;;;5071844;28;20295;-77
2023/03/18 07:27:33;;;;;;;9.07;4.80;;;9.40;99.90;;;;;;5072892;28;20231;-77
2023/03/18 07:30:01;;;;;;;8.30;4.90;;;9.90;99.90;;;;;;5072010;28;20560;-77
2023/03/18 07:32:30;;;;;;;7.30;4.30;;;10.30;99.90;;;;;;5073113;28;20669;-76
2023/03/18 07:34:59;;;;;;;7.97;4.50;;;10.60;99.90;;;;;;5075186;28;20258;-76
2023/03/18 07:37:28;;;;;;;7.23;4.10;;;10.70;99.90;;;;;;5075545;28;20254;-77
2023/03/18 07:39:57;;;;;;;5.20;3.50;;;10.70;99.90;;;;;;5075960;28;20239;-76
2023/03/18 07:42:25;;;;;;;7.57;3.40;;;10.80;99.90;;;;;;5074999;28;20218;-76
2023/03/18 07:44:54;;;;;;;5.87;3.53;;;10.90;99.90;;;;;;5076669;28;20571;-77
2023/03/18 07:47:23;;;;;;;6.57;3.77;;;11.20;99.90;;;;;;5076700;28;20398;-76
2023/03/18 07:49:52;;;;;;;6.27;3.97;;;11.50;99.90;;;;;;5076865;28;20310;-75
2023/03/18 07:52:20;;;;;;;6.03;3.57;;;11.70;99.90;;;;;;5075180;28;20235;-76
2023/03/18 07:54:51;;;;;;;5.67;3.60;;;11.90;99.90;;;;;;5077094;28;20776;-76
2023/03/18 07:57:19;;;;;;;8.77;3.87;;;12.10;99.90;;;;;;5076187;28;20531;-78
2023/03/18 07:59:47;;;;;;;7.17;3.40;;;12.20;99.90;;;;;;5082144;28;20203;-75
2023/03/18 08:02:15;;;;;;;7.37;3.60;;;12.50;99.90;;;;;;5097022;28;20562;-77
2023/03/18 08:04:45;;;;;;;9.13;3.50;;;12.60;99.90;;;;;;5096914;28;20691;-77
2023/03/18 08:07:13;;;;;;;6.43;3.37;;;12.80;99.90;;;;;;5089994;28;20203;-76
2023/03/18 08:09:42;;;;;;;5.70;3.30;;;13.10;99.90;;;;;;5077657;28;20207;-76
2023/03/18 08:12:12;;;;;;;6.63;3.20;;;13.30;99.90;;;;;;5080241;28;20637;-78
2023/03/18 08:14:40;;;;;;;5.60;2.90;;;13.60;99.90;;;;;;5094649;28;20202;-77
2023/03/18 08:17:09;;;;;;;8.27;3.13;;;13.70;99.90;;;;;;5096084;28;20643;-77
2023/03/18 08:19:37;;;;;;;4.90;3.00;;;13.80;99.90;;;;;;5095389;28;20565;-76
2023/03/18 08:22:07;;;;;;;5.70;2.90;;;13.90;99.90;;;;;;5094611;28;20206;-78
2023/03/18 08:24:36;;;;;;;7.73;2.83;;;14.20;99.90;;;;;;5078829;28;20353;-78
2023/03/18 08:27:05;;;;;;;6.43;3.00;;;14.40;99.90;;;;;;5074367;28;20601;-76
2023/03/18 08:29:34;;;;;;;5.87;3.00;;;14.50;99.90;;;;;;5074452;28;20227;-76
2023/03/18 08:32:02;;;;;;;4.97;3.50;;;14.60;99.90;;;;;;5074101;28;20760;-77
2023/03/18 08:34:31;;;;;;;6.27;3.47;;;14.90;99.90;;;;;;5074174;28;20258;-78
2023/03/18 08:36:59;;;;;;;3.33;2.43;;;14.80;99.90;;;;;;5074203;28;20574;-78
2023/03/18 08:39:28;;;;;;;6.83;2.60;;;14.80;99.90;;;;;;5073905;28;20723;-78
2023/03/18 08:41:58;;;;;;;3.63;2.60;;;15.20;99.90;;;;;;5083626;28;20209;-78
2023/03/18 08:44:26;;;;;;;4.90;3.00;;;15.30;99.90;;;;;;5093569;28;20309;-78
2023/03/18 08:46:56;;;;;;;5.20;2.60;;;15.40;99.90;;;;;;5094733;28;20215;-78
2023/03/18 08:49:25;;;;;;;5.17;2.93;;;15.30;99.90;;;;;;5094159;28;20281;-77
2023/03/18 08:51:53;;;;;;;4.10;2.77;;;15.10;99.90;;;;;;5093333;28;20227;-77
2023/03/18 08:54:22;;;;;;;5.73;2.70;;;15.30;99.90;;;;;;5100316;28;20260;-75
2023/03/18 08:56:51;;;;;;;5.90;2.80;;;15.10;98.80;;;;;;5110154;28;20245;-77
2023/03/18 08:59:19;;;;;;;4.80;2.90;;;15.40;98.80;;;;;;5108009;28;20199;-75
2023/03/18 09:01:47;;;;;;;4.53;2.40;;;15.30;99.60;;;;;;5096494;28;20215;-78
2023/03/18 09:04:18;;;;;;;8.03;2.90;;;15.70;98.80;;;;;;5094738;28;20477;-77
2023/03/18 09:06:47;;;;;;;5.27;2.70;;;16.00;97.00;;;;;;5094458;28;20195;-77
2023/03/18 09:09:15;;;;;;;5.57;2.63;;;16.30;97.10;;;;;;5093708;28;20203;-77
2023/03/18 09:11:45;;;;;;;6.57;2.50;;;16.30;97.20;;;;;;5093395;28;20692;-76
2023/03/18 09:14:13;;;;;;;3.80;2.40;;;16.50;97.50;;;;;;5093283;28;20202;-78
2023/03/18 09:16:42;;;;;;;3.30;2.60;;;16.90;96.90;;;;;;5093622;28;20214;-78
2023/03/18 09:19:11;;;;;;;5.43;2.93;;;17.00;95.50;;;;;;5080915;28;20301;-77
2023/03/18 09:21:40;;;;;;;6.37;2.70;;;16.90;95.90;;;;;;5073236;28;20294;-76
2023/03/18 09:24:09;;;;;;;6.67;2.93;;;17.10;95.90;;;;;;5072936;28;20250;-77
2023/03/18 09:26:38;;;;;;;4.23;2.53;;;17.20;96.10;;;;;;5073540;28;20266;-77
2023/03/18 09:29:06;;;;;;;7.10;3.10;;;17.00;95.30;;;;;;5073020;28;20211;-77
2023/03/18 09:31:34;;;;;;;4.00;2.60;;;16.80;95.80;;;;;;5072980;28;20703;-77
2023/03/18 09:34:02;;;;;;;6.53;2.80;;;17.00;94.40;;;;;;5073103;28;20311;-77
2023/03/18 09:36:30;;;;;;;6.67;2.97;;;17.10;95.80;;;;;;5074026;28;20231;-75
2023/03/18 09:39:00;;;;;;;6.40;2.60;;;17.00;95.80;;;;;;5074890;28;20204;-76
2023/03/18 09:41:41;;;;;;;6.33;3.00;;;17.70;96.40;;;;;;5075619;28;20696;-77
2023/03/18 09:44:16;;;;;;;7.43;3.00;;;17.40;93.80;;;;;;5072999;28;20234;-76
2023/03/18 09:47:04;;;;;;;5.83;3.07;;;17.60;93.30;;;;;;5072372;28;20621;-76
2023/03/18 09:49:47;;;;;;;6.60;2.93;;;17.30;93.00;;;;;;5072879;28;20628;-77
2023/03/18 09:52:23;;;;;;;6.13;2.93;;;17.90;93.10;;;;;;5055310;28;20231;-77
2023/03/18 09:54:58;;;;;;;6.13;3.17;;;17.80;92.30;;;;;;5082699;28;20210;-77
2023/03/18 09:57:30;;;;;;;5.43;3.23;;;16.90;93.50;;;;;;5092140;28;20614;-76
2023/03/18 10:00:05;;;;;;;4.93;3.33;;;16.60;93.20;;;;;;5093475;28;20253;-78
2023/03/18 10:02:38;;;;;;;4.87;3.00;;;16.90;93.10;;;;;;5092545;28;20206;-75
2023/03/18 10:05:14;;;;;;;5.80;3.17;;;16.90;94.90;;;;;;5092315;28;20236;-76
2023/03/18 10:07:43;;;;;;;7.33;2.97;;;17.80;93.50;;;;;;5092809;28;20492;-77
2023/03/18 10:10:22;;;;;;;6.87;3.20;;;18.20;92.10;;;;;;5092316;28;20207;-76
2023/03/18 10:12:56;;;;;;;7.67;2.87;;;18.70;92.30;;;;;;5089410;28;20234;-77
2023/03/18 10:15:30;;;;;;;4.03;2.90;;;19.00;90.30;;;;;;5072512;28;20195;-77
2023/03/18 10:18:05;;;;;;;5.90;3.03;;;18.90;91.30;;;;;;5072196;28;20542;-78
2023/03/18 10:20:43;;;;;;;9.47;3.50;;;18.80;91.30;;;;;;5071907;28;20559;-77
2023/03/18 10:23:21;;;;;;;8.10;3.37;;;18.60;91.60;;;;;;5054250;28;20230;-77
2023/03/18 10:25:53;;;;;;;8.00;3.30;;;19.00;92.30;;;;;;5072245;28;20286;-77
2023/03/18 10:28:53;;;;;;;6.80;3.40;;;19.30;92.20;;;;;;5072004;28;20321;-77
2023/03/18 10:31:32;;;;;;;8.90;3.60;;;18.60;90.50;;;;;;5071931;28;20254;-78
2023/03/18 10:34:05;;;;;;;8.60;3.03;;;19.50;91.70;;;;;;5071638;28;20258;-78
2023/03/18 10:36:44;;;;;;;6.23;3.67;;;19.80;88.50;;;;;;5072178;28;20277;-76
2023/03/18 10:39:18;;;;;;;7.10;3.50;;;20.40;90.10;;;;;;5072099;28;20587;-77
2023/03/18 10:41:53;;;;;;;8.67;3.57;;;21.80;86.10;;;;;;5072090;28;20199;-77
2023/03/18 10:44:25;;;;;;;5.80;3.30;;;21.40;84.30;;;;;;5071818;28;20218;-76
2023/03/18 10:46:58;;;;;;;7.82;3.50;;;22.80;81.40;;;;;;5071864;28;20199;-77
2023/03/18 10:49:31;;;;;;;6.07;3.63;;;24.40;73.50;;;;;;5089631;28;20229;-77
2023/03/18 10:52:06;;;;;;;6.60;3.58;;;25.10;68.80;;;;;;5091778;28;20590;-77
2023/03/18 10:54:40;;;;;;;6.38;3.80;;;23.60;67.30;;;;;;5091831;28;20232;-76
2023/03/18 10:57:14;;;;;;;6.32;3.60;;;23.60;69.20;;;;;;5075112;28;20203;-76
2023/03/18 10:59:44;;;;;;;5.18;3.25;;;23.70;68.20;;;;;;5071639;28;20233;-77
2023/03/18 11:02:18;;;;;;;6.57;3.38;;;24.10;69.50;;;;;;5071268;28;20207;-77
2023/03/18 11:04:53;;;;;;;9.27;3.58;;;24.70;67.50;;;;;;5071467;28;20249;-75
2023/03/18 11:07:24;;;;;;;5.50;3.55;;;25.00;62.90;;;;;;5072441;28;20192;-75
2023/03/18 11:09:53;;;;;;;6.00;3.40;;;24.30;63.30;;;;;;5090729;28;20207;-76
2023/03/18 11:12:28;;;;;;;5.13;3.00;;;24.70;63.30;;;;;;5095549;28;20759;-77
2023/03/18 11:14:57;;;;;;;5.30;3.20;;;24.20;61.90;;;;;;5095671;28;20218;-77
2023/03/18 11:17:29;;;;;;;5.78;3.50;;;24.50;63.00;;;;;;5095807;28;20560;-77
2023/03/18 11:20:06;;;;;;;4.95;3.58;;;22.90;60.50;;;;;;5096026;28;20621;-76
2023/03/18 11:22:37;;;;;;;7.25;3.70;;;24.20;63.30;;;;;;5075409;28;20242;-78
2023/03/18 11:25:15;;;;;;;5.65;3.28;;;24.10;63.80;;;;;;5075739;28;20238;-77
2023/03/18 11:27:45;;;;;;;7.20;2.90;;;23.80;58.70;;;;;;5075635;28;20285;-76
2023/03/18 11:30:19;;;;;;;5.72;2.30;;;24.10;54.00;;;;;;5075530;28;20221;-77
2023/03/18 11:33:05;;;;;;;5.63;2.97;;;24.60;54.20;;;;;;5075131;28;20231;-77
2023/03/18 11:35:40;;;;;;;6.75;3.45;;;23.90;57.20;;;;;;5075236;28;20281;-77
2023/03/18 11:38:15;;;;;;;4.82;3.15;;;23.50;59.00;;;;;;5077448;28;20219;-77
2023/03/18 11:40:43;;;;;;;6.65;3.33;;;24.40;56.60;;;;;;5077624;28;20241;-77
2023/03/18 11:43:19;;;;;;;4.72;3.03;;;25.30;55.10;;;;;;5077130;28;20238;-76
2023/03/18 11:45:53;;;;;;;6.38;2.85;;;24.70;53.00;;;;;;5097042;28;20630;-76
2023/03/18 11:48:32;;;;;;;4.90;2.67;;;24.50;53.10;;;;;;5099800;28;20203;-76
2023/03/18 11:51:33;;;;;;;4.93;2.63;;;24.70;53.70;;;;;;5101553;28;20221;-77
2023/03/18 11:54:15;;;;;;;4.82;2.65;;;24.70;52.70;;;;;;5077936;28;20211;-76
2023/03/18 11:56:47;;;;;;;8.02;2.65;;;23.40;52.20;;;;;;5084920;28;20294;-76
2023/03/18 11:59:31;;;;;;;4.88;3.10;;;23.20;53.00;;;;;;5083287;28;20603;-77
2023/03/18 12:02:35;;;;;;;3.85;2.70;;;23.20;55.10;;;;;;5090602;28;20242;-77
2023/03/18 12:05:36;;;;;;;4.13;2.38;;;23.00;53.30;;;;;;5085069;28;20241;-76
2023/03/18 12:08:16;;;;;;;6.20;2.40;;;22.60;53.30;;;;;;5090936;28;20285;-77
2023/03/18 12:10:47;;;;;;;4.07;2.20;;;22.20;52.60;;;;;;5100797;28;20230;-77
2023/03/18 12:13:28;;;;;;;4.57;2.17;;;21.80;51.80;;;;;;5103921;28;20214;-77
2023/03/18 12:16:06;;;;;;;5.47;2.33;;;21.90;54.90;;;;;;5094561;28;20553;-77
2023/03/18 12:18:49;;;;;;;5.57;2.30;;;21.80;54.10;;;;;;5075280;28;20217;-77
2023/03/18 12:21:36;;;;;;;4.33;2.33;;;21.00;52.90;;;;;;5074566;28;20222;-77
2023/03/18 12:24:23;;;;;;;4.63;2.20;;;20.80;53.30;;;;;;5074900;28;20366;-75
2023/03/18 12:26:59;;;;;;;4.80;2.20;;;20.80;54.10;;;;;;5075010;28;20257;-77
2023/03/18 12:30:01;;;;;;;3.43;1.93;;;20.50;52.60;;;;;;5074861;28;20246;-77
2023/03/18 12:32:35;;;;;;;4.17;2.10;;;20.70;53.00;;;;;;5076642;28;20211;-77
2023/03/18 12:35:26;;;;;;;5.50;2.40;;;20.80;53.00;;;;;;5094882;28;20621;-77
2023/03/18 12:38:12;;;;;;;4.80;2.10;;;20.60;52.60;;;;;;5090168;28;20622;-77
2023/03/18 12:40:49;;;;;;;3.80;2.10;;;20.30;52.70;;;;;;5090390;28;20857;-77
2023/03/18 12:43:32;;;;;;;5.83;2.40;;;20.40;53.90;;;;;;5073755;28;20217;-75
2023/03/18 12:46:04;;;;;;;7.03;2.33;;;20.60;52.70;;;;;;5074206;28;20668;-78
2023/03/18 12:48:42;;;;;;;5.73;2.80;;;20.10;52.20;;;;;;5073756;28;20210;-77
2023/03/18 12:51:17;;;;;;;5.83;2.83;;;20.30;52.30;;;;;;5074087;28;20215;-77
2023/03/18 12:53:48;;;;;;;4.83;2.60;;;20.10;52.80;;;;;;5073671;28;20538;-78
2023/03/18 12:56:20;;;;;;;4.67;2.70;;;20.10;53.50;;;;;;5073768;28;20195;-78
2023/03/18 12:58:52;;;;;;;5.40;2.70;;;19.70;52.40;;;;;;5074090;28;20215;-78
2023/03/18 13:01:26;;;;;;;6.23;2.50;;;19.50;54.10;;;;;;5073854;28;20230;-77
2023/03/18 13:04:00;;;;;;;5.63;2.60;;;20.00;56.20;;;;;;5073559;28;20218;-78
2023/03/18 13:06:36;;;;;;;5.57;2.50;;;20.30;54.80;;;;;;5083773;28;20210;-77
2023/03/18 13:09:14;;;;;;;4.60;2.57;;;20.60;54.80;;;;;;5075096;28;20203;-79